Impacts TAF Board INFO
FOR SITUATIONAL AWARENESS. NOT TO BE USED FOR FLIGHT PLANNING PURPOSES.
IDs:

KMDW - Chicago/Midway Intl, IL, US

Issued at 1508 UTC 18 Jan 2018
Updated at 1541 UTC 18 Jan 2018
Potential Impact None Slight Moderate High
Time1453Z 18/16Z 18/17Z 18/18Z 18/19Z 18/20Z 18/21Z 18/22Z 18/23Z 19/00Z 19/01Z 19/02Z 19/03Z 19/04Z>>
Type OBS PRVL PRVL PRVL PRVL PRVL PRVL PRVL PRVL PRVL PRVL PRVL PRVL PRVL
VIS 10 >6 >6 >6 >6 >6 >6 >6 >6 >6 >6 >6 >6 >6
CIG -- -- -- -- -- -- -- -- -- -- -- -- -- --
Cover FEW SCT SCT SCT SCT SCT SCT SCT SCT SKC SKC SKC SKC SKC
FltCat VFR VFR VFR VFR VFR VFR VFR VFR VFR VFR VFR VFR VFR VFR
WX -- -- -- -- -- -- -- -- -- -- -- -- -- --
WDir 240 240 240 240 240 240 240 240 240 230 230 230 230 230
WSpd 16 16 16 16 16 16 16 16 16 12 12 12 12 12
WGst 20 23 23 23 23 23 23 23 23 -- -- -- -- --

Raw TAF
KMDW 181508Z 1815/1918 24016G23KT P6SM SCT250
  FM190000 23012KT P6SM SKC
  FM191600 22014G20KT P6SM FEW250


Raw METAR
KMDW 181453Z 24016G20KT 10SM FEW250 M07/M12 A3015 RMK AO2 SLP228 T10671117 55005
KMDW 181353Z 23015KT 10SM CLR M08/M12 A3014 RMK AO2 SLP225 T10781117
KMDW 181253Z 24014KT 10SM CLR M08/M12 A3017 RMK AO2 SLP234 T10781122

METAR Board
Radar Display
Forecast Discussion

FOR SITUATIONAL AWARENESS. NOT TO BE USED FOR FLIGHT PLANNING PURPOSES.